Pierpont, OH (44082)

8:54 AM EDT on July 07, 2015 (GMT -0400)
Ashtabula County | | Change Station
CLOSE
Current Station
Airport
Location: Ashtabula,
Elevation: 922 ft
Nearby Weather Stations

Elev 922 ft 41.78 °N, 80.70 °W | Updated 1 hour ago

Clear
Clear
69 °F
Feels Like 69 °F
N
10
Wind Variable Wind from SSW

Today
High -- | Low -- °F
--% Chance of Precip.
Yesterday
High -- | Low -- °F
Precip. -- in
5:54 AM 8:59 PM
Waning Gibbous, 65% visible
Pressure 29.96 in
Visibility 6.0 miles
Clouds Few 3300 ft
Few 4200 ft
Dew Point 66 °F
Humidity 90%
Rainfall 0.00 in
Snow Depth Not available.
UV 1 out of 12
Pollen 2.50 out of 12
Air Quality Not available.
Flu Activity Not available.
METAR KHZY 071153Z AUTO 20009KT 6SM BR FEW033 FEW042 21/19 A2998 RMK AO2 SLP145 70006 T02060189 10211 20194 51001

More Conditions Fewer Conditions

Pressure 29.96 in
Visibility 6.0 miles
Clouds Few 3300 ft
Few 4200 ft
Dew Point 66 °F
Humidity 90%
Rainfall 0.00 in
Snow Depth Not available.
UV 1 out of 12
Pollen 2.50 out of 12
Air Quality Not available.
Flu Activity Not available.
METAR KHZY 071153Z AUTO 20009KT 6SM BR FEW033 FEW042 21/19 A2998 RMK AO2 SLP145 70006 T02060189 10211 20194 51001

More Conditions Fewer Conditions

10-Day Weather Forecast

×

Almanac

Astronomy

Jul. 07, 2015 Rise Set
Actual Time
Civil Twilight
Nautical Twilight
Astronomical Twilight
Moon
Length of Visible Light
Length of Day
Tomorrow will be .
, % of the Moon is Illuminated

Today's Extremes

State Highs State Lows

Community

WunderPhotos

Upload Photos

1,835,788 photos uploaded!

WunderBlogs® & News

Nearby

Air Quality

  Air Quality AQ Index Pollutant
Not available.

Snow Depth

Station Depth Elevation

Earthquake Activity

City Distance Mag. Time & Date
Minimum magnitude displayed is 2.5.

Coastal Water Temperatures

Place Temperature

Stations

Nearby Weather Stations

Station Location Temp. Windchill Dew Point Humidity Wind Precip. Elev Updated Type